Participated 2 times
Between 1970 and 1971
Attilio Benfatto, Italy
Tour de France 2026 starts from Barcelona, Spain in

Stats and Facts from
Tour de France.

2026   2025   2024   2023  2022  2021  2020  2019   2018  2017   2016   2015  2014  2013   2012   2011  2010   2009   2008   2007   2006   2005   2004   2003   2002   2001   2000   1999   1998   1997  1996   1995   1994   1993   1992  1991   1990   1989   1988   1987   1986   1985   1984   1983  1982  1981   1980   1979  1978  1977   1976  1975  1974  1973   1972   1971   1970  1969   1968   1967   1966   1965  1964  1963   1962   1961   1960   1959   1958   1957  1956   1955   1954   1953   1952  1951  1950  1949   1948  1947  1939   1938   1937   1936   1935   1934   1933  1932   1931   1930  1929   1928   1927   1926  1925  1924  1923   1922   1921   1920   1919  1914   1913   1912   1911   1910  1909   1908   1907   1906  1905  1904   1903 

Tourstats
Sitemap

After stage 21 - 2025:
 16451 starters.
  5463 different riders.
  689 teams.
  2398 stages.
  470 restdays.
  466506.50 km.
  5925 abandoned riders.

Click map for 2006 route.
Facts from Tour de France 2006
  |   Stages.  |   Stage winners.  |   Days in jerseys.  |   Teams.  |   All riders.  |   All riders by age.  |   All riders from.  |  

  |   Rookies.  |   Withdrawls.  |   Average speed.  |   GC.  |   Polka  |   Green  |   White  |   Summits. (In tour)  |   Miscellaneous.  |  

Stage 16 on July 19th. 2006
Pick a stage:  Pro  1  2  3  4  5  6  7  8  9  10  11  12  13  14  15  16  17  18  19  20  

After stage 16:    Óscar Pereiro  
  Bourg-d´OisansLa Toussuire | Dist: 182.00km. | Winner: Michael Rasmussen

Podium
HC  Col du Galibier Michael Rasmussenafter45.50 km.

HC  Col de la Croix de Fer Michael Rasmussenafter126.50 km.

2  Col du Mollard Michael Rasmussenafter146.50 km.

1  La Toussuire Michael Rasmussenafter182.00 km.


Average speed for all riders in stage:  29,619 km./hr.

1
 Michael Rasmussen  Rabobank05h 36' 04"=32,494  km/h

2
 Carlos Sastre  CSC05h 37' 45"+  00:01:41 =32,332  km/h

3
 Óscar Pereiro  Illes Balears-Caisse d Epargne05h 37' 58"+  00:01:54 =32,311  km/h

4  Cadel Evans  Davitamon-Lotto05h 38' 00"+  00:01:56 =32,308  km/h

5  Andréas  Klöden  T-Mobile05h 38' 00"+  00:01:56 =32,308  km/h

6  Christophe Moreau  AG2R-Decathlon05h 38' 41"+  00:02:37 =32,243  km/h

7  Pietro Caucchioli  Credit Agricole05h 38' 41"+  00:02:37 =32,243  km/h

8  Cyril Dessel  AG2R-Decathlon05h 38' 41"+  00:02:37 =32,243  km/h

9  Levi Leipheimer  Gerolsteiner05h 39' 28"+  00:03:24 =32,168  km/h

10  Haimar  Zubeldía  Euskaltel-Euskadi05h 39' 46"+  00:03:42 =32,140  km/h

11  Denis Menchov  Rabobank05h 39' 46"+  00:03:42 =32,140  km/h

12  Michael Rogers  T-Mobile05h 39' 46"+  00:03:42 =32,140  km/h

13  Eddy Mazzoleni  T-Mobile05h 39' 46"+  00:03:42 =32,140  km/h

14  Damiano Cunego  Lampre-Fondital05h 40' 25"+  00:04:21 =32,078  km/h

15  Michael Boogerd  Rabobank05h 42' 37"+  00:06:33 =31,872  km/h

16  José Azevedo  Discovery Channel05h 43' 59"+  00:07:55 =31,746  km/h

17  Markus Fothen  Gerolsteiner05h 44' 41"+  00:08:37 =31,681  km/h

18  Fränk Schleck  CSC05h 44' 41"+  00:08:37 =31,681  km/h

19  Tadej Valjavec  Lampre-Fondital05h 45' 18"+  00:09:14 =31,625  km/h

20  Vladimir Karpets  Illes Balears-Caisse d Epargne05h 45' 44"+  00:09:40 =31,585  km/h

21  Francisco Javier Vila  Lampre-Fondital05h 45' 44"+  00:09:40 =31,585  km/h

22  Axel Merckx  Phonak Hearing Systems05h 46' 08"+  00:10:04 =31,549  km/h

23  Floyd Landis  Phonak Hearing Systems05h 46' 08"+  00:10:04 =31,549  km/h

24  David Arroyo  Illes Balears-Caisse d Epargne05h 46' 08"+  00:10:04 =31,549  km/h

25  Giuseppe Guerini  T-Mobile05h 47' 20"+  00:11:16 =31,440  km/h

26  Sylvain Calzati  AG2R-Decathlon05h 48' 05"+  00:12:01 =31,372  km/h

27  Iker Camaño  Euskaltel-Euskadi05h 49' 20"+  00:13:16 =31,260  km/h

28  Stéphane Goubert  AG2R-Decathlon05h 50' 32"+  00:14:28 =31,153  km/h

29  Pierrick  Fédrigo  Bouygues Telecom05h 51' 23"+  00:15:19 =31,077  km/h

30  Matthieu Sprick  Bouygues Telecom05h 51' 44"+  00:15:40 =31,046  km/h

31  Benoit Salmon  Agritubel05h 51' 46"+  00:15:42 =31,043  km/h

32  David Moncoutié  Cofidis Credit Par Telephone05h 51' 46"+  00:15:42 =31,043  km/h

33  Sandy Casar  Francaise Des Jeux05h 52' 37"+  00:16:33 =30,968  km/h

34  Christian Vandevelde  CSC05h 53' 28"+  00:17:24 =30,894  km/h

35  Xabier Zandio  Illes Balears-Caisse d Epargne05h 53' 28"+  00:17:24 =30,894  km/h

36  Alexandre Botcharov  Credit Agricole05h 57' 14"+  00:21:10 =30,568  km/h

37  Mikel Astarloza  AG2R-Decathlon05h 58' 16"+  00:22:12 =30,480  km/h

38  Marzio Bruseghin  Lampre-Fondital05h 58' 16"+  00:22:12 =30,480  km/h

39  Christophe Brandt  Davitamon-Lotto06h 00' 50"+  00:24:46 =30,263  km/h

40  Rubén Lobato  Saunier Duval-Prodir06h 00' 50"+  00:24:46 =30,263  km/h

41  Christophe Rinero  Saunier Duval-Prodir06h 00' 50"+  00:24:46 =30,263  km/h

42  Christopher Horner  Davitamon-Lotto06h 00' 50"+  00:24:46 =30,263  km/h

43  Matthias Kessler  T-Mobile06h 01' 48"+  00:25:44 =30,182  km/h

44  David Millar  Saunier Duval-Prodir06h 01' 54"+  00:25:50 =30,174  km/h

45  Christophe Le Mevel  Credit Agricole06h 05' 00"+  00:28:56 =29,918  km/h

46  Juan Manuel Garate  Quick Step-Innergetic06h 05' 00"+  00:28:56 =29,918  km/h

47  Jose Luis Arrieta  AG2R-Decathlon06h 05' 00"+  00:28:56 =29,918  km/h

48  Egoi Martínez  Discovery Channel06h 05' 00"+  00:28:56 =29,918  km/h

49  George Hincapie  Discovery Channel06h 05' 00"+  00:28:56 =29,918  km/h

50  Juan Miguel Mercado  Agritubel06h 05' 00"+  00:28:56 =29,918  km/h

51  Yaroslav Popovych  Discovery Channel06h 05' 00"+  00:28:56 =29,918  km/h

52  Laurent Lefèvre  Bouygues Telecom06h 05' 00"+  00:28:56 =29,918  km/h

53  Thomas Löfkvist  Francaise Des Jeux06h 11' 09"+  00:35:05 =29,422  km/h

54  Sebastian Lang  Gerolsteiner06h 11' 09"+  00:35:05 =29,422  km/h

55  Moisés Dueñas  Agritubel06h 11' 09"+  00:35:05 =29,422  km/h

56  Koos Moerenhout  Phonak Hearing Systems06h 11' 09"+  00:35:05 =29,422  km/h

57  Serhiy Honchar  T-Mobile06h 11' 09"+  00:35:05 =29,422  km/h

58  Iván Parra  Cofidis Credit Par Telephone06h 11' 09"+  00:35:05 =29,422  km/h

59  Patrik Sinkewitz  T-Mobile06h 11' 09"+  00:35:05 =29,422  km/h

60  Gorka Verdugo  Euskaltel-Euskadi06h 11' 09"+  00:35:05 =29,422  km/h

61  Gilberto Simoni  Saunier Duval-Prodir06h 11' 09"+  00:35:05 =29,422  km/h

62  Patrice Halgand  Credit Agricole06h 11' 09"+  00:35:05 =29,422  km/h

63  Salvatore Commesso  Lampre-Fondital06h 11' 09"+  00:35:05 =29,422  km/h

64  Paolo Tiralongo  Lampre-Fondital06h 11' 09"+  00:35:05 =29,422  km/h

65  Benoit Vaugrenard  Francaise Des Jeux06h 13' 21"+  00:37:17 =29,249  km/h

66  José-Luis Rubiera  Discovery Channel06h 13' 21"+  00:37:17 =29,249  km/h

67  Daniele Righi  Lampre-Fondital06h 13' 21"+  00:37:17 =29,249  km/h

68  Pieter Weening  Rabobank06h 19' 46"+  00:43:42 =28,754  km/h

69  Stuart O'Grady  CSC06h 20' 05"+  00:44:01 =28,731  km/h

70  Marco Velo  Milram06h 20' 05"+  00:44:01 =28,731  km/h

71  Anthony Charteau  Credit Agricole06h 20' 05"+  00:44:01 =28,731  km/h

72  Stefano Garzelli  Liquigas06h 20' 05"+  00:44:01 =28,731  km/h

73  Didier Rous  Bouygues Telecom06h 20' 05"+  00:44:01 =28,731  km/h

74  Walter Bénéteau  Bouygues Telecom06h 20' 05"+  00:44:01 =28,731  km/h

75  Filippo Pozzato  Quick Step-Innergetic06h 20' 05"+  00:44:01 =28,731  km/h

76  Pavel Padrnos  Discovery Channel06h 20' 05"+  00:44:01 =28,731  km/h

77  Matteo Tosatto  Quick Step-Innergetic06h 20' 05"+  00:44:01 =28,731  km/h

78  Bram Tankink  Quick Step-Innergetic06h 20' 05"+  00:44:01 =28,731  km/h

79  Alessandro Ballan  Lampre-Fondital06h 20' 05"+  00:44:01 =28,731  km/h

80  Joost Posthuma  Rabobank06h 20' 05"+  00:44:01 =28,731  km/h

81  Christian Knees  Milram06h 20' 05"+  00:44:01 =28,731  km/h

82  Jimmy Casper  Cofidis Credit Par Telephone06h 20' 05"+  00:44:01 =28,731  km/h

83  Philippe Gilbert  Francaise Des Jeux06h 20' 05"+  00:44:01 =28,731  km/h

84  Stéphane Auge  Cofidis Credit Par Telephone06h 20' 05"+  00:44:01 =28,731  km/h

85  Christophe Laurent  Agritubel06h 20' 05"+  00:44:01 =28,731  km/h

86  Wim Vansevenant  Davitamon-Lotto06h 20' 05"+  00:44:01 =28,731  km/h

87  Sébastien Hinault  Credit Agricole06h 20' 05"+  00:44:01 =28,731  km/h

88  Kjell Carlström  Liquigas06h 20' 05"+  00:44:01 =28,731  km/h

89  Luca Paolini  Liquigas06h 20' 05"+  00:44:01 =28,731  km/h

90  David Lopez  Euskaltel-Euskadi06h 20' 05"+  00:44:01 =28,731  km/h

91  Iñaki Isasi  Euskaltel-Euskadi06h 20' 05"+  00:44:01 =28,731  km/h

92  Mario Aerts  Davitamon-Lotto06h 20' 05"+  00:44:01 =28,731  km/h

93  Ralf Grabsch  Milram06h 20' 05"+  00:44:01 =28,731  km/h

94  Peter Wrolich  Gerolsteiner06h 20' 05"+  00:44:01 =28,731  km/h

95  Nicolas Portal  Illes Balears-Caisse d Epargne06h 20' 05"+  00:44:01 =28,731  km/h

96  Simon Gerrans  AG2R-Decathlon06h 20' 05"+  00:44:01 =28,731  km/h

97  Johan Vansummeren  Davitamon-Lotto06h 20' 05"+  00:44:01 =28,731  km/h

98  Bert Grabsch  Phonak Hearing Systems06h 20' 05"+  00:44:01 =28,731  km/h

99  Ronny Scholz  Gerolsteiner06h 20' 05"+  00:44:01 =28,731  km/h

100  Jérôme Pineau  Bouygues Telecom06h 20' 05"+  00:44:01 =28,731  km/h

101  Riccardo Riccò  Saunier Duval-Prodir06h 20' 05"+  00:44:01 =28,731  km/h

102  Bernhard Eisel  Francaise Des Jeux06h 20' 05"+  00:44:01 =28,731  km/h

103  Michael Albasini  Liquigas06h 20' 05"+  00:44:01 =28,731  km/h

104  Gustav-Erik Larsson  Francaise Des Jeux06h 20' 05"+  00:44:01 =28,731  km/h

105  Anthony Geslin  Bouygues Telecom06h 20' 05"+  00:44:01 =28,731  km/h

106  Cristian Moreni  Cofidis Credit Par Telephone06h 20' 05"+  00:44:01 =28,731  km/h

107  Jens Voigt  CSC06h 20' 05"+  00:44:01 =28,731  km/h

108  Matej Mugerli  Liquigas06h 20' 05"+  00:44:01 =28,731  km/h

109  Robbie McEwen  Davitamon-Lotto06h 20' 05"+  00:44:01 =28,731  km/h

110  Bradley Wiggins  Cofidis Credit Par Telephone06h 20' 05"+  00:44:01 =28,731  km/h

111  Manuel Calvente  Agritubel06h 20' 05"+  00:44:01 =28,731  km/h

112  Julian Dean  Credit Agricole06h 20' 05"+  00:44:01 =28,731  km/h

113  Arnaud Coyot  Cofidis Credit Par Telephone06h 20' 05"+  00:44:01 =28,731  km/h

114  Unai Etxebarria  Euskaltel-Euskadi06h 20' 05"+  00:44:01 =28,731  km/h

115  Aitor Hernández  Euskaltel-Euskadi06h 20' 05"+  00:44:01 =28,731  km/h

116  Erik Zabel  Milram06h 20' 05"+  00:44:01 =28,731  km/h

117  Samuel Dumoulin  AG2R-Decathlon06h 20' 05"+  00:44:01 =28,731  km/h

118  Sylvain Chavanel  Cofidis Credit Par Telephone06h 20' 05"+  00:44:01 =28,731  km/h

119  Georg Totschnig  Gerolsteiner06h 20' 05"+  00:44:01 =28,731  km/h

120  Fabian Wegmann  Gerolsteiner06h 20' 05"+  00:44:01 =28,731  km/h

121  Manuel Quinziato  Liquigas06h 20' 05"+  00:44:01 =28,731  km/h

122  Eduardo Gonzalo  Agritubel06h 20' 05"+  00:44:01 =28,731  km/h

123  Carlos Da Cruz  Francaise Des Jeux06h 20' 05"+  00:44:01 =28,731  km/h

124  Alexandre Moos  Phonak Hearing Systems06h 20' 05"+  00:44:01 =28,731  km/h

125  Robert Hunter  Phonak Hearing Systems06h 20' 05"+  00:44:01 =28,731  km/h

126  Patrick Calcagni  Liquigas06h 20' 05"+  00:44:01 =28,731  km/h

127  Christophe Mengin  Francaise Des Jeux06h 20' 05"+  00:44:01 =28,731  km/h

128  Cédric Vasseur  Quick Step-Innergetic06h 20' 05"+  00:44:01 =28,731  km/h

129  Viatcheslav Ekimov  Discovery Channel06h 20' 05"+  00:44:01 =28,731  km/h

130  Juan Antonio Flecha  Rabobank06h 20' 05"+  00:44:01 =28,731  km/h

131  Óscar Freire  Rabobank06h 20' 05"+  00:44:01 =28,731  km/h

132  Björn Schröder  Milram06h 20' 05"+  00:44:01 =28,731  km/h

133  Florent Brard  Illes Balears-Caisse d Epargne06h 20' 05"+  00:44:01 =28,731  km/h

134  David De La Fuente  Saunier Duval-Prodir06h 20' 05"+  00:44:01 =28,731  km/h

135  Cédric Coutouly  Agritubel06h 20' 05"+  00:44:01 =28,731  km/h

136  Gert Steegmans  Davitamon-Lotto06h 20' 05"+  00:44:01 =28,731  km/h

137  Iñigo Landaluze  Euskaltel-Euskadi06h 20' 05"+  00:44:01 =28,731  km/h

138  Thor Hushovd  Credit Agricole06h 20' 05"+  00:44:01 =28,731  km/h

139  Victor Hugo Peña  Phonak Hearing Systems06h 20' 05"+  00:44:01 =28,731  km/h

140  José Garcia Acosta  Illes Balears-Caisse d Epargne06h 20' 05"+  00:44:01 =28,731  km/h

141  Francisco Ventoso  Saunier Duval-Prodir06h 20' 05"+  00:44:01 =28,731  km/h

142  José Ángel Gomez  Saunier Duval-Prodir06h 20' 05"+  00:44:01 =28,731  km/h

143  Nicolas Jalabert  Phonak Hearing Systems06h 20' 05"+  00:44:01 =28,731  km/h

144  David Zabriskie  CSC06h 20' 05"+  00:44:01 =28,731  km/h

145  Miguel Angel Martín  Phonak Hearing Systems06h 20' 05"+  00:44:01 =28,731  km/h

146  Thomas  Voeckler  Bouygues Telecom06h 20' 05"+  00:44:01 =28,731  km/h

147  José Rujano  Quick Step-Innergetic06h 20' 05"+  00:44:01 =28,731  km/h


Withdrawls: 5
 RiderTeamReason
43   David Kopp GerolsteinerDid not finish
83   Daniele Bennati Lampre-FonditalDid not finish
103   Steven de Jongh Quick Step-InnergeticDid not finish
155   Sébastien Joly Francaise Des JeuxDid not finish
185   Maxim Iglinskiy MilramDid not finish
Todays birthdays.

1869 • Adolphe Dorion
1884 • Achille Germain
1886 • Emile Eigeldinger
1896 • Andre Léger
1907 • Frans Dictus
1921 • Alberto Ghirardi
1934 • Joseph Planckaert
1945 • Leif Mortensen
1952 • Alex Van Linden
1960 • Roberto Bressan
1960 • Bernard Chesneau
1962 • Paul Watson
1963 • Juan Rozas
1965 • Jean-Pierre Heynderickx
1967 • José-Manuel Oliveira
1970 • Wilfried Nelissen
1980 • Nick Nuyens
1996 • Jai Hindley

 

Optimized for Chrome - Edge
and Opera browsers.